sensor_id;sensor_type;location;lat;lon;timestamp;P1;durP1;ratioP1;P2;durP2;ratioP2
20982;SDS011;10650;51.528;6.748;2022-12-16T00:01:09;93.53;;;48.85;;
20982;SDS011;10650;51.528;6.748;2022-12-16T00:03:39;87.97;;;48.13;;
20982;SDS011;10650;51.528;6.748;2022-12-16T00:06:09;97.68;;;50.92;;
20982;SDS011;10650;51.528;6.748;2022-12-16T00:08:37;87.65;;;46.45;;
20982;SDS011;10650;51.528;6.748;2022-12-16T00:11:06;93.70;;;46.28;;
20982;SDS011;10650;51.528;6.748;2022-12-16T00:13:35;103.28;;;53.50;;
20982;SDS011;10650;51.528;6.748;2022-12-16T00:16:07;105.22;;;54.85;;
20982;SDS011;10650;51.528;6.748;2022-12-16T00:18:37;98.65;;;51.78;;
20982;SDS011;10650;51.528;6.748;2022-12-16T00:21:05;103.90;;;57.35;;
20982;SDS011;10650;51.528;6.748;2022-12-16T00:23:34;104.68;;;58.35;;
20982;SDS011;10650;51.528;6.748;2022-12-16T00:26:04;111.22;;;61.35;;
20982;SDS011;10650;51.528;6.748;2022-12-16T00:28:33;110.82;;;60.55;;
20982;SDS011;10650;51.528;6.748;2022-12-16T00:31:01;97.38;;;55.28;;
20982;SDS011;10650;51.528;6.748;2022-12-16T00:33:31;76.65;;;43.30;;
20982;SDS011;10650;51.528;6.748;2022-12-16T00:35:59;86.55;;;48.03;;
20982;SDS011;10650;51.528;6.748;2022-12-16T00:38:27;88.78;;;48.88;;
20982;SDS011;10650;51.528;6.748;2022-12-16T00:40:55;84.80;;;44.55;;
20982;SDS011;10650;51.528;6.748;2022-12-16T00:43:23;79.90;;;43.47;;
20982;SDS011;10650;51.528;6.748;2022-12-16T00:45:51;74.50;;;41.20;;
20982;SDS011;10650;51.528;6.748;2022-12-16T00:48:19;72.38;;;40.22;;
20982;SDS011;10650;51.528;6.748;2022-12-16T00:50:50;85.82;;;46.03;;
20982;SDS011;10650;51.528;6.748;2022-12-16T00:53:21;86.63;;;46.47;;
20982;SDS011;10650;51.528;6.748;2022-12-16T00:55:50;76.75;;;42.03;;
20982;SDS011;10650;51.528;6.748;2022-12-16T00:58:18;81.13;;;43.50;;
20982;SDS011;10650;51.528;6.748;2022-12-16T01:00:46;74.38;;;39.78;;
20982;SDS011;10650;51.528;6.748;2022-12-16T01:03:14;74.32;;;39.78;;
20982;SDS011;10650;51.528;6.748;2022-12-16T01:05:47;74.80;;;40.45;;
20982;SDS011;10650;51.528;6.748;2022-12-16T01:08:17;71.32;;;39.15;;
20982;SDS011;10650;51.528;6.748;2022-12-16T01:10:48;78.15;;;39.65;;
20982;SDS011;10650;51.528;6.748;2022-12-16T01:15:45;82.68;;;41.67;;
20982;SDS011;10650;51.528;6.748;2022-12-16T01:18:13;81.00;;;42.53;;
20982;SDS011;10650;51.528;6.748;2022-12-16T01:20:41;73.63;;;39.80;;
20982;SDS011;10650;51.528;6.748;2022-12-16T01:23:09;78.65;;;40.38;;
20982;SDS011;10650;51.528;6.748;2022-12-16T01:25:39;69.80;;;36.90;;
20982;SDS011;10650;51.528;6.748;2022-12-16T01:28:06;72.43;;;38.80;;
20982;SDS011;10650;51.528;6.748;2022-12-16T01:30:35;73.93;;;40.08;;
20982;SDS011;10650;51.528;6.748;2022-12-16T01:33:02;81.57;;;43.45;;
20982;SDS011;10650;51.528;6.748;2022-12-16T01:35:30;75.63;;;42.25;;
20982;SDS011;10650;51.528;6.748;2022-12-16T01:38:18;77.40;;;40.95;;
20982;SDS011;10650;51.528;6.748;2022-12-16T01:40:47;73.10;;;39.03;;
20982;SDS011;10650;51.528;6.748;2022-12-16T01:43:15;83.78;;;42.92;;
20982;SDS011;10650;51.528;6.748;2022-12-16T01:45:45;75.40;;;40.72;;
20982;SDS011;10650;51.528;6.748;2022-12-16T01:48:14;77.05;;;40.47;;
20982;SDS011;10650;51.528;6.748;2022-12-16T01:50:48;78.25;;;41.72;;
20982;SDS011;10650;51.528;6.748;2022-12-16T01:53:18;80.78;;;40.40;;
20982;SDS011;10650;51.528;6.748;2022-12-16T01:55:48;74.57;;;39.55;;
20982;SDS011;10650;51.528;6.748;2022-12-16T01:58:18;78.85;;;41.63;;
20982;SDS011;10650;51.528;6.748;2022-12-16T02:00:50;73.55;;;39.20;;
20982;SDS011;10650;51.528;6.748;2022-12-16T02:03:19;79.53;;;41.63;;
20982;SDS011;10650;51.528;6.748;2022-12-16T02:05:48;75.38;;;40.58;;
20982;SDS011;10650;51.528;6.748;2022-12-16T02:08:18;78.30;;;41.10;;
20982;SDS011;10650;51.528;6.748;2022-12-16T02:10:55;77.10;;;41.42;;
20982;SDS011;10650;51.528;6.748;2022-12-16T02:13:37;79.78;;;40.33;;
20982;SDS011;10650;51.528;6.748;2022-12-16T02:16:23;74.75;;;38.67;;
20982;SDS011;10650;51.528;6.748;2022-12-16T02:19:01;75.15;;;39.72;;
20982;SDS011;10650;51.528;6.748;2022-12-16T02:21:45;80.75;;;41.15;;
20982;SDS011;10650;51.528;6.748;2022-12-16T02:26:59;76.10;;;39.53;;
20982;SDS011;10650;51.528;6.748;2022-12-16T02:32:52;76.18;;;38.85;;
20982;SDS011;10650;51.528;6.748;2022-12-16T02:35:33;70.13;;;38.67;;
20982;SDS011;10650;51.528;6.748;2022-12-16T02:38:09;71.18;;;38.08;;
20982;SDS011;10650;51.528;6.748;2022-12-16T02:40:45;73.70;;;39.63;;
20982;SDS011;10650;51.528;6.748;2022-12-16T02:43:21;73.10;;;38.42;;
20982;SDS011;10650;51.528;6.748;2022-12-16T02:46:07;76.78;;;40.40;;
20982;SDS011;10650;51.528;6.748;2022-12-16T02:48:35;72.80;;;38.65;;
20982;SDS011;10650;51.528;6.748;2022-12-16T02:51:03;78.70;;;39.22;;
20982;SDS011;10650;51.528;6.748;2022-12-16T02:53:31;75.38;;;39.67;;
20982;SDS011;10650;51.528;6.748;2022-12-16T02:56:03;74.53;;;39.92;;
20982;SDS011;10650;51.528;6.748;2022-12-16T02:58:38;66.45;;;36.78;;
20982;SDS011;10650;51.528;6.748;2022-12-16T03:01:18;66.80;;;36.40;;
20982;SDS011;10650;51.528;6.748;2022-12-16T03:03:53;70.65;;;38.78;;
20982;SDS011;10650;51.528;6.748;2022-12-16T03:06:27;65.82;;;36.25;;
20982;SDS011;10650;51.528;6.748;2022-12-16T03:08:58;59.85;;;33.65;;
20982;SDS011;10650;51.528;6.748;2022-12-16T03:11:29;74.45;;;38.60;;
20982;SDS011;10650;51.528;6.748;2022-12-16T03:13:58;77.32;;;39.00;;
20982;SDS011;10650;51.528;6.748;2022-12-16T03:16:31;71.68;;;37.13;;
20982;SDS011;10650;51.528;6.748;2022-12-16T03:19:01;66.82;;;35.75;;
20982;SDS011;10650;51.528;6.748;2022-12-16T03:21:33;82.82;;;40.55;;
20982;SDS011;10650;51.528;6.748;2022-12-16T03:24:06;72.20;;;37.92;;
20982;SDS011;10650;51.528;6.748;2022-12-16T03:26:42;76.30;;;40.20;;
20982;SDS011;10650;51.528;6.748;2022-12-16T03:29:14;69.68;;;36.72;;
20982;SDS011;10650;51.528;6.748;2022-12-16T03:31:50;65.05;;;35.28;;
20982;SDS011;10650;51.528;6.748;2022-12-16T03:34:25;68.63;;;37.22;;
20982;SDS011;10650;51.528;6.748;2022-12-16T03:36:59;73.68;;;39.22;;
20982;SDS011;10650;51.528;6.748;2022-12-16T03:39:30;66.97;;;35.90;;
20982;SDS011;10650;51.528;6.748;2022-12-16T03:42:01;72.40;;;39.08;;
20982;SDS011;10650;51.528;6.748;2022-12-16T03:44:30;72.57;;;38.80;;
20982;SDS011;10650;51.528;6.748;2022-12-16T03:47:00;72.13;;;37.67;;
20982;SDS011;10650;51.528;6.748;2022-12-16T03:49:27;75.90;;;36.65;;
20982;SDS011;10650;51.528;6.748;2022-12-16T03:51:55;65.95;;;34.72;;
20982;SDS011;10650;51.528;6.748;2022-12-16T03:54:25;66.55;;;36.47;;
20982;SDS011;10650;51.528;6.748;2022-12-16T03:56:54;67.80;;;36.55;;
20982;SDS011;10650;51.528;6.748;2022-12-16T03:59:22;65.15;;;36.25;;
20982;SDS011;10650;51.528;6.748;2022-12-16T04:01:50;59.67;;;33.33;;
20982;SDS011;10650;51.528;6.748;2022-12-16T04:04:20;71.95;;;38.22;;
20982;SDS011;10650;51.528;6.748;2022-12-16T04:06:48;77.63;;;39.80;;
20982;SDS011;10650;51.528;6.748;2022-12-16T04:09:36;64.57;;;36.30;;
20982;SDS011;10650;51.528;6.748;2022-12-16T04:12:04;69.50;;;37.13;;
20982;SDS011;10650;51.528;6.748;2022-12-16T04:14:50;74.80;;;39.35;;
20982;SDS011;10650;51.528;6.748;2022-12-16T04:17:36;66.40;;;36.83;;
20982;SDS011;10650;51.528;6.748;2022-12-16T04:20:23;80.05;;;41.10;;
20982;SDS011;10650;51.528;6.748;2022-12-16T04:23:14;74.35;;;39.08;;
20982;SDS011;10650;51.528;6.748;2022-12-16T04:26:00;69.47;;;37.35;;
20982;SDS011;10650;51.528;6.748;2022-12-16T04:28:28;77.28;;;39.20;;
20982;SDS011;10650;51.528;6.748;2022-12-16T04:30:56;72.72;;;38.58;;
20982;SDS011;10650;51.528;6.748;2022-12-16T04:33:24;68.65;;;37.17;;
20982;SDS011;10650;51.528;6.748;2022-12-16T04:36:11;77.95;;;40.22;;
20982;SDS011;10650;51.528;6.748;2022-12-16T04:38:56;74.63;;;38.63;;
20982;SDS011;10650;51.528;6.748;2022-12-16T04:41:42;68.72;;;35.97;;
20982;SDS011;10650;51.528;6.748;2022-12-16T04:44:27;68.07;;;35.88;;
20982;SDS011;10650;51.528;6.748;2022-12-16T04:47:13;71.28;;;38.28;;
20982;SDS011;10650;51.528;6.748;2022-12-16T04:49:58;68.65;;;36.28;;
20982;SDS011;10650;51.528;6.748;2022-12-16T04:52:46;72.78;;;37.92;;
20982;SDS011;10650;51.528;6.748;2022-12-16T04:55:35;75.63;;;39.70;;
20982;SDS011;10650;51.528;6.748;2022-12-16T04:58:28;73.50;;;37.75;;
20982;SDS011;10650;51.528;6.748;2022-12-16T05:01:14;67.43;;;36.40;;
20982;SDS011;10650;51.528;6.748;2022-12-16T05:04:00;69.78;;;37.00;;
20982;SDS011;10650;51.528;6.748;2022-12-16T05:06:45;74.03;;;38.30;;
20982;SDS011;10650;51.528;6.748;2022-12-16T05:09:32;69.93;;;37.55;;
20982;SDS011;10650;51.528;6.748;2022-12-16T05:12:18;71.80;;;38.08;;
20982;SDS011;10650;51.528;6.748;2022-12-16T05:15:04;73.13;;;38.20;;
20982;SDS011;10650;51.528;6.748;2022-12-16T05:17:50;68.85;;;35.65;;
20982;SDS011;10650;51.528;6.748;2022-12-16T05:20:35;86.13;;;41.25;;
20982;SDS011;10650;51.528;6.748;2022-12-16T05:23:20;84.03;;;40.17;;
20982;SDS011;10650;51.528;6.748;2022-12-16T05:26:07;67.82;;;36.67;;
20982;SDS011;10650;51.528;6.748;2022-12-16T05:28:53;65.05;;;35.92;;
20982;SDS011;10650;51.528;6.748;2022-12-16T05:31:38;76.70;;;37.08;;
20982;SDS011;10650;51.528;6.748;2022-12-16T05:34:24;74.30;;;37.85;;
20982;SDS011;10650;51.528;6.748;2022-12-16T05:37:09;68.90;;;36.03;;
20982;SDS011;10650;51.528;6.748;2022-12-16T05:39:55;74.95;;;39.60;;
20982;SDS011;10650;51.528;6.748;2022-12-16T05:42:45;89.32;;;45.38;;
20982;SDS011;10650;51.528;6.748;2022-12-16T05:45:38;85.30;;;44.30;;
20982;SDS011;10650;51.528;6.748;2022-12-16T05:48:35;83.97;;;45.20;;
20982;SDS011;10650;51.528;6.748;2022-12-16T05:51:23;86.07;;;45.38;;
20982;SDS011;10650;51.528;6.748;2022-12-16T05:54:17;86.88;;;44.92;;
20982;SDS011;10650;51.528;6.748;2022-12-16T05:57:03;86.18;;;45.28;;
20982;SDS011;10650;51.528;6.748;2022-12-16T05:59:51;79.53;;;41.70;;
20982;SDS011;10650;51.528;6.748;2022-12-16T06:02:45;81.68;;;42.85;;
20982;SDS011;10650;51.528;6.748;2022-12-16T06:05:36;79.45;;;42.78;;
20982;SDS011;10650;51.528;6.748;2022-12-16T06:08:46;74.47;;;39.60;;
20982;SDS011;10650;51.528;6.748;2022-12-16T06:11:34;67.07;;;37.22;;
20982;SDS011;10650;51.528;6.748;2022-12-16T06:14:20;74.65;;;40.53;;
20982;SDS011;10650;51.528;6.748;2022-12-16T06:17:07;69.05;;;37.90;;
20982;SDS011;10650;51.528;6.748;2022-12-16T06:19:53;77.97;;;40.35;;
20982;SDS011;10650;51.528;6.748;2022-12-16T06:22:39;72.50;;;39.08;;
20982;SDS011;10650;51.528;6.748;2022-12-16T06:25:35;74.95;;;38.55;;
20982;SDS011;10650;51.528;6.748;2022-12-16T06:28:21;78.55;;;40.92;;
20982;SDS011;10650;51.528;6.748;2022-12-16T06:31:11;75.43;;;40.85;;
20982;SDS011;10650;51.528;6.748;2022-12-16T06:34:00;77.05;;;39.95;;
20982;SDS011;10650;51.528;6.748;2022-12-16T06:36:46;80.45;;;42.08;;
20982;SDS011;10650;51.528;6.748;2022-12-16T06:39:47;79.70;;;41.45;;
20982;SDS011;10650;51.528;6.748;2022-12-16T06:42:32;86.38;;;43.63;;
20982;SDS011;10650;51.528;6.748;2022-12-16T06:45:57;80.07;;;42.75;;
20982;SDS011;10650;51.528;6.748;2022-12-16T06:56:28;78.13;;;42.10;;
20982;SDS011;10650;51.528;6.748;2022-12-16T06:59:12;93.85;;;46.80;;
20982;SDS011;10650;51.528;6.748;2022-12-16T07:01:57;84.63;;;46.55;;
20982;SDS011;10650;51.528;6.748;2022-12-16T07:04:42;89.13;;;48.13;;
20982;SDS011;10650;51.528;6.748;2022-12-16T07:07:28;92.93;;;47.80;;
20982;SDS011;10650;51.528;6.748;2022-12-16T07:10:13;81.90;;;43.80;;
20982;SDS011;10650;51.528;6.748;2022-12-16T07:12:59;89.22;;;46.03;;
20982;SDS011;10650;51.528;6.748;2022-12-16T07:15:45;87.97;;;46.22;;
20982;SDS011;10650;51.528;6.748;2022-12-16T07:18:31;89.13;;;47.00;;
20982;SDS011;10650;51.528;6.748;2022-12-16T07:21:16;76.93;;;41.97;;
20982;SDS011;10650;51.528;6.748;2022-12-16T07:24:01;85.57;;;43.88;;
20982;SDS011;10650;51.528;6.748;2022-12-16T07:26:47;82.05;;;43.78;;
20982;SDS011;10650;51.528;6.748;2022-12-16T07:29:33;80.88;;;44.85;;
20982;SDS011;10650;51.528;6.748;2022-12-16T07:32:19;80.93;;;43.90;;
20982;SDS011;10650;51.528;6.748;2022-12-16T07:35:05;85.15;;;45.83;;
20982;SDS011;10650;51.528;6.748;2022-12-16T07:37:50;76.70;;;42.10;;
20982;SDS011;10650;51.528;6.748;2022-12-16T07:40:36;91.40;;;45.97;;
20982;SDS011;10650;51.528;6.748;2022-12-16T07:43:22;84.80;;;45.33;;
20982;SDS011;10650;51.528;6.748;2022-12-16T07:46:09;85.78;;;45.45;;
20982;SDS011;10650;51.528;6.748;2022-12-16T14:22:43;160.48;;;65.70;;
20982;SDS011;10650;51.528;6.748;2022-12-16T14:25:36;168.20;;;68.05;;
20982;SDS011;10650;51.528;6.748;2022-12-16T14:28:26;169.20;;;66.63;;
20982;SDS011;10650;51.528;6.748;2022-12-16T14:31:14;150.88;;;61.90;;
20982;SDS011;10650;51.528;6.748;2022-12-16T14:34:03;137.73;;;60.40;;
20982;SDS011;10650;51.528;6.748;2022-12-16T14:36:48;145.27;;;65.30;;
20982;SDS011;10650;51.528;6.748;2022-12-16T14:39:38;151.35;;;64.82;;
20982;SDS011;10650;51.528;6.748;2022-12-16T14:42:27;142.73;;;62.45;;
20982;SDS011;10650;51.528;6.748;2022-12-16T14:45:20;144.40;;;61.55;;
20982;SDS011;10650;51.528;6.748;2022-12-16T14:48:27;140.48;;;60.90;;
20982;SDS011;10650;51.528;6.748;2022-12-16T14:51:37;156.20;;;66.70;;
20982;SDS011;10650;51.528;6.748;2022-12-16T14:54:56;142.45;;;62.03;;
20982;SDS011;10650;51.528;6.748;2022-12-16T14:57:42;138.68;;;60.80;;
20982;SDS011;10650;51.528;6.748;2022-12-16T15:00:38;141.77;;;62.78;;
20982;SDS011;10650;51.528;6.748;2022-12-16T15:03:28;144.82;;;66.60;;
20982;SDS011;10650;51.528;6.748;2022-12-16T15:06:23;123.28;;;61.28;;
20982;SDS011;10650;51.528;6.748;2022-12-16T15:09:13;136.18;;;63.40;;
20982;SDS011;10650;51.528;6.748;2022-12-16T15:12:09;127.22;;;57.45;;
20982;SDS011;10650;51.528;6.748;2022-12-16T15:15:25;145.77;;;62.03;;
20982;SDS011;10650;51.528;6.748;2022-12-16T15:18:45;122.13;;;56.90;;
20982;SDS011;10650;51.528;6.748;2022-12-16T15:21:38;106.40;;;46.25;;
20982;SDS011;10650;51.528;6.748;2022-12-16T15:24:36;124.40;;;56.30;;
20982;SDS011;10650;51.528;6.748;2022-12-16T15:27:36;131.77;;;58.05;;
20982;SDS011;10650;51.528;6.748;2022-12-16T16:11:34;103.40;;;54.05;;
20982;SDS011;10650;51.528;6.748;2022-12-16T16:15:26;105.95;;;53.05;;
20982;SDS011;10650;51.528;6.748;2022-12-16T16:21:19;109.05;;;54.42;;
20982;SDS011;10650;51.528;6.748;2022-12-16T16:24:07;108.45;;;54.38;;
20982;SDS011;10650;51.528;6.748;2022-12-16T17:30:16;111.22;;;60.78;;
20982;SDS011;10650;51.528;6.748;2022-12-16T17:33:37;117.28;;;59.95;;
20982;SDS011;10650;51.528;6.748;2022-12-16T17:36:33;121.75;;;64.28;;
20982;SDS011;10650;51.528;6.748;2022-12-16T17:39:24;116.90;;;61.33;;
20982;SDS011;10650;51.528;6.748;2022-12-16T17:42:10;125.00;;;66.38;;
20982;SDS011;10650;51.528;6.748;2022-12-16T17:44:55;117.88;;;64.18;;
20982;SDS011;10650;51.528;6.748;2022-12-16T17:47:42;117.90;;;60.90;;
20982;SDS011;10650;51.528;6.748;2022-12-16T17:50:28;134.95;;;66.72;;
20982;SDS011;10650;51.528;6.748;2022-12-16T17:53:16;125.88;;;65.55;;
20982;SDS011;10650;51.528;6.748;2022-12-16T17:56:02;124.82;;;63.65;;
20982;SDS011;10650;51.528;6.748;2022-12-16T17:58:51;115.18;;;59.60;;
20982;SDS011;10650;51.528;6.748;2022-12-16T18:01:38;115.10;;;59.85;;
20982;SDS011;10650;51.528;6.748;2022-12-16T18:07:12;148.40;;;89.68;;
20982;SDS011;10650;51.528;6.748;2022-12-16T18:09:59;122.13;;;65.38;;
20982;SDS011;10650;51.528;6.748;2022-12-16T18:12:46;112.75;;;62.70;;
20982;SDS011;10650;51.528;6.748;2022-12-16T18:15:31;128.13;;;72.28;;
20982;SDS011;10650;51.528;6.748;2022-12-16T18:18:19;118.45;;;63.63;;
20982;SDS011;10650;51.528;6.748;2022-12-16T18:21:39;126.22;;;64.00;;
20982;SDS011;10650;51.528;6.748;2022-12-16T18:24:34;139.25;;;73.80;;
20982;SDS011;10650;51.528;6.748;2022-12-16T18:27:37;155.85;;;74.70;;
20982;SDS011;10650;51.528;6.748;2022-12-16T18:30:25;176.65;;;80.85;;
20982;SDS011;10650;51.528;6.748;2022-12-16T18:33:11;175.02;;;79.35;;
20982;SDS011;10650;51.528;6.748;2022-12-16T18:35:58;186.43;;;91.95;;
20982;SDS011;10650;51.528;6.748;2022-12-16T18:38:49;179.48;;;78.72;;
20982;SDS011;10650;51.528;6.748;2022-12-16T18:41:41;225.60;;;92.47;;
20982;SDS011;10650;51.528;6.748;2022-12-16T18:44:33;248.70;;;91.97;;
20982;SDS011;10650;51.528;6.748;2022-12-16T18:47:26;254.90;;;94.57;;
20982;SDS011;10650;51.528;6.748;2022-12-16T18:50:16;254.13;;;95.68;;
20982;SDS011;10650;51.528;6.748;2022-12-16T18:53:11;283.25;;;101.57;;
20982;SDS011;10650;51.528;6.748;2022-12-16T18:56:00;274.15;;;98.93;;
20982;SDS011;10650;51.528;6.748;2022-12-16T18:58:47;312.05;;;105.47;;
20982;SDS011;10650;51.528;6.748;2022-12-16T19:01:33;263.60;;;94.47;;
20982;SDS011;10650;51.528;6.748;2022-12-16T19:08:07;252.77;;;94.05;;
20982;SDS011;10650;51.528;6.748;2022-12-16T19:10:59;292.48;;;104.55;;
20982;SDS011;10650;51.528;6.748;2022-12-16T20:23:37;303.70;;;102.50;;
20982;SDS011;10650;51.528;6.748;2022-12-16T20:26:44;253.75;;;92.78;;
20982;SDS011;10650;51.528;6.748;2022-12-16T20:29:58;263.20;;;93.03;;
20982;SDS011;10650;51.528;6.748;2022-12-16T20:32:52;292.60;;;97.28;;
20982;SDS011;10650;51.528;6.748;2022-12-16T20:59:42;260.67;;;87.53;;
20982;SDS011;10650;51.528;6.748;2022-12-16T21:16:58;266.33;;;81.95;;
20982;SDS011;10650;51.528;6.748;2022-12-16T21:19:59;270.48;;;86.45;;
20982;SDS011;10650;51.528;6.748;2022-12-16T21:22:55;233.55;;;78.63;;
20982;SDS011;10650;51.528;6.748;2022-12-16T21:25:53;238.23;;;80.00;;
20982;SDS011;10650;51.528;6.748;2022-12-16T21:28:57;217.32;;;74.45;;
20982;SDS011;10650;51.528;6.748;2022-12-16T21:32:31;195.30;;;68.88;;
20982;SDS011;10650;51.528;6.748;2022-12-16T21:35:58;243.77;;;75.75;;
20982;SDS011;10650;51.528;6.748;2022-12-16T21:42:57;191.32;;;68.28;;
20982;SDS011;10650;51.528;6.748;2022-12-16T21:46:05;182.93;;;64.03;;
20982;SDS011;10650;51.528;6.748;2022-12-16T21:49:17;184.48;;;64.00;;
20982;SDS011;10650;51.528;6.748;2022-12-16T21:52:12;193.95;;;67.63;;
20982;SDS011;10650;51.528;6.748;2022-12-16T21:55:11;241.43;;;76.05;;
20982;SDS011;10650;51.528;6.748;2022-12-16T21:57:58;192.02;;;62.80;;
20982;SDS011;10650;51.528;6.748;2022-12-16T22:00:43;217.63;;;74.78;;
20982;SDS011;10650;51.528;6.748;2022-12-16T22:03:32;212.93;;;70.55;;
20982;SDS011;10650;51.528;6.748;2022-12-16T22:06:25;246.93;;;77.75;;
20982;SDS011;10650;51.528;6.748;2022-12-16T22:09:14;239.55;;;74.53;;
20982;SDS011;10650;51.528;6.748;2022-12-16T22:12:23;225.18;;;72.72;;
20982;SDS011;10650;51.528;6.748;2022-12-16T22:17:52;178.18;;;66.75;;
20982;SDS011;10650;51.528;6.748;2022-12-16T22:20:38;166.40;;;62.53;;
20982;SDS011;10650;51.528;6.748;2022-12-16T22:23:26;180.50;;;66.20;;
20982;SDS011;10650;51.528;6.748;2022-12-16T22:26:12;180.57;;;66.10;;
20982;SDS011;10650;51.528;6.748;2022-12-16T22:28:58;188.27;;;69.10;;
20982;SDS011;10650;51.528;6.748;2022-12-16T22:31:44;164.57;;;64.20;;
20982;SDS011;10650;51.528;6.748;2022-12-16T22:34:30;163.88;;;62.33;;
20982;SDS011;10650;51.528;6.748;2022-12-16T22:37:15;238.43;;;78.20;;
20982;SDS011;10650;51.528;6.748;2022-12-16T22:40:01;209.98;;;74.70;;
20982;SDS011;10650;51.528;6.748;2022-12-16T22:42:46;237.75;;;76.97;;
20982;SDS011;10650;51.528;6.748;2022-12-16T22:45:32;218.88;;;73.82;;
20982;SDS011;10650;51.528;6.748;2022-12-16T22:48:17;238.80;;;76.68;;
20982;SDS011;10650;51.528;6.748;2022-12-16T22:51:10;255.43;;;78.90;;
20982;SDS011;10650;51.528;6.748;2022-12-16T22:53:58;232.80;;;76.20;;
20982;SDS011;10650;51.528;6.748;2022-12-16T22:56:44;221.00;;;75.40;;
20982;SDS011;10650;51.528;6.748;2022-12-16T22:59:30;208.68;;;72.97;;
20982;SDS011;10650;51.528;6.748;2022-12-16T23:02:15;167.48;;;62.33;;
20982;SDS011;10650;51.528;6.748;2022-12-16T23:05:00;203.88;;;68.88;;
20982;SDS011;10650;51.528;6.748;2022-12-16T23:07:54;195.25;;;68.32;;
20982;SDS011;10650;51.528;6.748;2022-12-16T23:10:42;245.02;;;78.43;;
20982;SDS011;10650;51.528;6.748;2022-12-16T23:13:27;174.38;;;65.50;;
20982;SDS011;10650;51.528;6.748;2022-12-16T23:16:12;179.07;;;64.32;;
20982;SDS011;10650;51.528;6.748;2022-12-16T23:18:58;172.30;;;63.83;;
20982;SDS011;10650;51.528;6.748;2022-12-16T23:21:44;182.00;;;65.53;;
20982;SDS011;10650;51.528;6.748;2022-12-16T23:24:30;168.07;;;65.10;;
20982;SDS011;10650;51.528;6.748;2022-12-16T23:27:24;184.60;;;67.50;;
20982;SDS011;10650;51.528;6.748;2022-12-16T23:30:10;223.65;;;75.28;;
20982;SDS011;10650;51.528;6.748;2022-12-16T23:32:56;214.15;;;73.90;;
20982;SDS011;10650;51.528;6.748;2022-12-16T23:35:41;216.38;;;74.70;;
20982;SDS011;10650;51.528;6.748;2022-12-16T23:38:27;175.73;;;66.50;;
20982;SDS011;10650;51.528;6.748;2022-12-16T23:41:14;192.57;;;69.80;;
20982;SDS011;10650;51.528;6.748;2022-12-16T23:43:58;180.27;;;66.22;;
20982;SDS011;10650;51.528;6.748;2022-12-16T23:46:43;174.07;;;63.92;;
20982;SDS011;10650;51.528;6.748;2022-12-16T23:49:29;159.02;;;65.22;;
20982;SDS011;10650;51.528;6.748;2022-12-16T23:52:14;165.38;;;66.63;;
20982;SDS011;10650;51.528;6.748;2022-12-16T23:54:59;180.18;;;69.97;;
20982;SDS011;10650;51.528;6.748;2022-12-16T23:57:46;166.15;;;64.50;;
